sensor_id;sensor_type;location;lat;lon;timestamp;P1;durP1;ratioP1;P2;durP2;ratioP2
70592;SDS011;58294;42.988;20.338;2023-05-10T00:00:13;15.63;;;9.48;;
70592;SDS011;58294;42.988;20.338;2023-05-10T00:02:39;17.48;;;11.00;;
70592;SDS011;58294;42.988;20.338;2023-05-10T00:05:05;14.80;;;11.88;;
70592;SDS011;58294;42.988;20.338;2023-05-10T00:07:31;16.75;;;10.25;;
70592;SDS011;58294;42.988;20.338;2023-05-10T00:09:57;13.80;;;9.18;;
70592;SDS011;58294;42.988;20.338;2023-05-10T00:12:23;11.25;;;9.02;;
70592;SDS011;58294;42.988;20.338;2023-05-10T00:14:49;12.05;;;8.85;;
70592;SDS011;58294;42.988;20.338;2023-05-10T00:17:15;10.27;;;7.03;;
70592;SDS011;58294;42.988;20.338;2023-05-10T00:19:40;11.38;;;8.70;;
70592;SDS011;58294;42.988;20.338;2023-05-10T00:22:06;10.65;;;8.52;;
70592;SDS011;58294;42.988;20.338;2023-05-10T00:24:32;8.60;;;6.10;;
70592;SDS011;58294;42.988;20.338;2023-05-10T00:26:58;9.20;;;6.88;;
70592;SDS011;58294;42.988;20.338;2023-05-10T00:29:23;7.10;;;6.10;;
70592;SDS011;58294;42.988;20.338;2023-05-10T00:31:49;5.93;;;4.93;;
70592;SDS011;58294;42.988;20.338;2023-05-10T00:34:15;5.75;;;5.15;;
70592;SDS011;58294;42.988;20.338;2023-05-10T00:36:41;11.13;;;5.68;;
70592;SDS011;58294;42.988;20.338;2023-05-10T00:39:07;4.53;;;4.13;;
70592;SDS011;58294;42.988;20.338;2023-05-10T00:41:33;7.07;;;4.35;;
70592;SDS011;58294;42.988;20.338;2023-05-10T00:43:58;5.90;;;4.38;;
70592;SDS011;58294;42.988;20.338;2023-05-10T00:46:24;5.78;;;4.30;;
70592;SDS011;58294;42.988;20.338;2023-05-10T00:48:51;7.53;;;6.50;;
70592;SDS011;58294;42.988;20.338;2023-05-10T00:51:17;7.85;;;7.05;;
70592;SDS011;58294;42.988;20.338;2023-05-10T00:53:44;6.88;;;5.88;;
70592;SDS011;58294;42.988;20.338;2023-05-10T00:56:11;6.70;;;5.57;;
70592;SDS011;58294;42.988;20.338;2023-05-10T00:58:38;4.90;;;4.45;;
70592;SDS011;58294;42.988;20.338;2023-05-10T01:01:05;5.32;;;4.40;;
70592;SDS011;58294;42.988;20.338;2023-05-10T01:03:32;5.07;;;4.28;;
70592;SDS011;58294;42.988;20.338;2023-05-10T01:05:58;5.30;;;4.80;;
70592;SDS011;58294;42.988;20.338;2023-05-10T01:08:24;5.90;;;5.40;;
70592;SDS011;58294;42.988;20.338;2023-05-10T01:10:50;5.20;;;4.25;;
70592;SDS011;58294;42.988;20.338;2023-05-10T01:13:23;4.47;;;3.88;;
70592;SDS011;58294;42.988;20.338;2023-05-10T01:15:57;3.92;;;3.58;;
70592;SDS011;58294;42.988;20.338;2023-05-10T01:18:24;5.43;;;4.47;;
70592;SDS011;58294;42.988;20.338;2023-05-10T01:20:55;4.63;;;4.13;;
70592;SDS011;58294;42.988;20.338;2023-05-10T01:23:48;5.07;;;4.57;;
70592;SDS011;58294;42.988;20.338;2023-05-10T01:37:42;3.72;;;3.25;;
70592;SDS011;58294;42.988;20.338;2023-05-10T01:43:17;4.85;;;3.88;;
70592;SDS011;58294;42.988;20.338;2023-05-10T01:48:19;4.90;;;3.70;;
70592;SDS011;58294;42.988;20.338;2023-05-10T01:50:46;4.20;;;3.80;;
70592;SDS011;58294;42.988;20.338;2023-05-10T01:53:13;5.10;;;3.88;;
70592;SDS011;58294;42.988;20.338;2023-05-10T01:55:48;3.40;;;3.10;;
70592;SDS011;58294;42.988;20.338;2023-05-10T01:58:20;4.38;;;3.45;;
70592;SDS011;58294;42.988;20.338;2023-05-10T02:00:49;5.07;;;4.13;;
70592;SDS011;58294;42.988;20.338;2023-05-10T02:03:17;6.45;;;4.03;;
70592;SDS011;58294;42.988;20.338;2023-05-10T02:05:46;4.00;;;3.58;;
70592;SDS011;58294;42.988;20.338;2023-05-10T02:08:14;4.47;;;4.07;;
70592;SDS011;58294;42.988;20.338;2023-05-10T02:10:42;5.43;;;4.40;;
70592;SDS011;58294;42.988;20.338;2023-05-10T02:13:10;5.25;;;3.83;;
70592;SDS011;58294;42.988;20.338;2023-05-10T02:15:37;4.20;;;3.35;;
70592;SDS011;58294;42.988;20.338;2023-05-10T02:18:05;4.80;;;3.88;;
70592;SDS011;58294;42.988;20.338;2023-05-10T02:20:32;4.72;;;3.22;;
70592;SDS011;58294;42.988;20.338;2023-05-10T02:22:59;4.93;;;3.30;;
70592;SDS011;58294;42.988;20.338;2023-05-10T02:25:27;4.10;;;2.92;;
70592;SDS011;58294;42.988;20.338;2023-05-10T02:27:55;3.97;;;2.80;;
70592;SDS011;58294;42.988;20.338;2023-05-10T02:30:22;3.22;;;2.92;;
70592;SDS011;58294;42.988;20.338;2023-05-10T02:32:50;3.70;;;3.15;;
70592;SDS011;58294;42.988;20.338;2023-05-10T02:35:17;3.85;;;3.05;;
70592;SDS011;58294;42.988;20.338;2023-05-10T02:37:43;4.32;;;2.80;;
70592;SDS011;58294;42.988;20.338;2023-05-10T02:40:11;3.13;;;2.83;;
70592;SDS011;58294;42.988;20.338;2023-05-10T02:42:40;3.60;;;3.30;;
70592;SDS011;58294;42.988;20.338;2023-05-10T02:45:11;2.80;;;2.55;;
70592;SDS011;58294;42.988;20.338;2023-05-10T02:47:40;4.47;;;3.17;;
70592;SDS011;58294;42.988;20.338;2023-05-10T02:50:06;10.63;;;9.60;;
70592;SDS011;58294;42.988;20.338;2023-05-10T02:52:37;5.07;;;4.47;;
70592;SDS011;58294;42.988;20.338;2023-05-10T02:55:17;6.22;;;5.72;;
70592;SDS011;58294;42.988;20.338;2023-05-10T02:57:57;4.88;;;4.38;;
70592;SDS011;58294;42.988;20.338;2023-05-10T03:00:25;3.92;;;3.35;;
70592;SDS011;58294;42.988;20.338;2023-05-10T03:02:51;5.57;;;3.85;;
70592;SDS011;58294;42.988;20.338;2023-05-10T03:05:17;4.13;;;3.58;;
70592;SDS011;58294;42.988;20.338;2023-05-10T03:07:44;4.50;;;3.65;;
70592;SDS011;58294;42.988;20.338;2023-05-10T03:10:11;5.43;;;4.25;;
70592;SDS011;58294;42.988;20.338;2023-05-10T03:15:11;6.05;;;4.22;;
70592;SDS011;58294;42.988;20.338;2023-05-10T03:21:10;5.95;;;3.72;;
70592;SDS011;58294;42.988;20.338;2023-05-10T03:26:05;4.32;;;3.53;;
70592;SDS011;58294;42.988;20.338;2023-05-10T03:28:33;4.63;;;4.22;;
70592;SDS011;58294;42.988;20.338;2023-05-10T03:31:00;5.43;;;3.85;;
70592;SDS011;58294;42.988;20.338;2023-05-10T03:33:27;5.85;;;4.05;;
70592;SDS011;58294;42.988;20.338;2023-05-10T03:35:53;4.25;;;3.85;;
70592;SDS011;58294;42.988;20.338;2023-05-10T03:38:19;4.53;;;3.83;;
70592;SDS011;58294;42.988;20.338;2023-05-10T03:40:45;14.05;;;8.90;;
70592;SDS011;58294;42.988;20.338;2023-05-10T03:43:11;7.00;;;5.60;;
70592;SDS011;58294;42.988;20.338;2023-05-10T03:45:36;16.63;;;12.35;;
70592;SDS011;58294;42.988;20.338;2023-05-10T03:48:02;8.13;;;4.75;;
70592;SDS011;58294;42.988;20.338;2023-05-10T03:50:28;4.05;;;3.67;;
70592;SDS011;58294;42.988;20.338;2023-05-10T03:52:54;4.22;;;3.83;;
70592;SDS011;58294;42.988;20.338;2023-05-10T03:55:20;4.85;;;3.88;;
70592;SDS011;58294;42.988;20.338;2023-05-10T03:57:46;4.10;;;3.47;;
70592;SDS011;58294;42.988;20.338;2023-05-10T04:00:14;9.10;;;4.15;;
70592;SDS011;58294;42.988;20.338;2023-05-10T04:02:40;5.95;;;4.32;;
70592;SDS011;58294;42.988;20.338;2023-05-10T04:05:06;5.60;;;4.07;;
70592;SDS011;58294;42.988;20.338;2023-05-10T04:07:32;5.30;;;4.30;;
70592;SDS011;58294;42.988;20.338;2023-05-10T04:09:58;4.95;;;3.38;;
70592;SDS011;58294;42.988;20.338;2023-05-10T04:12:24;3.17;;;2.58;;
70592;SDS011;58294;42.988;20.338;2023-05-10T04:14:50;3.25;;;2.88;;
70592;SDS011;58294;42.988;20.338;2023-05-10T04:17:16;3.35;;;2.58;;
70592;SDS011;58294;42.988;20.338;2023-05-10T04:19:41;6.93;;;3.13;;
70592;SDS011;58294;42.988;20.338;2023-05-10T04:22:07;7.35;;;6.55;;
70592;SDS011;58294;42.988;20.338;2023-05-10T04:24:33;3.45;;;3.03;;
70592;SDS011;58294;42.988;20.338;2023-05-10T04:26:59;2.78;;;2.55;;
70592;SDS011;58294;42.988;20.338;2023-05-10T04:29:25;4.55;;;3.65;;
70592;SDS011;58294;42.988;20.338;2023-05-10T04:31:52;4.00;;;2.72;;
70592;SDS011;58294;42.988;20.338;2023-05-10T04:34:19;6.43;;;4.00;;
70592;SDS011;58294;42.988;20.338;2023-05-10T04:36:46;6.50;;;3.75;;
70592;SDS011;58294;42.988;20.338;2023-05-10T04:39:11;3.45;;;3.15;;
70592;SDS011;58294;42.988;20.338;2023-05-10T04:41:38;4.43;;;3.40;;
70592;SDS011;58294;42.988;20.338;2023-05-10T04:44:04;4.43;;;3.20;;
70592;SDS011;58294;42.988;20.338;2023-05-10T04:46:31;4.80;;;3.10;;
70592;SDS011;58294;42.988;20.338;2023-05-10T04:48:57;3.08;;;2.42;;
70592;SDS011;58294;42.988;20.338;2023-05-10T04:51:22;3.03;;;2.30;;
70592;SDS011;58294;42.988;20.338;2023-05-10T04:53:48;3.83;;;2.40;;
70592;SDS011;58294;42.988;20.338;2023-05-10T04:56:14;2.78;;;2.40;;
70592;SDS011;58294;42.988;20.338;2023-05-10T04:58:41;6.72;;;5.35;;
70592;SDS011;58294;42.988;20.338;2023-05-10T05:01:07;8.30;;;5.90;;
70592;SDS011;58294;42.988;20.338;2023-05-10T05:03:33;13.13;;;6.57;;
70592;SDS011;58294;42.988;20.338;2023-05-10T05:05:59;10.05;;;4.93;;
70592;SDS011;58294;42.988;20.338;2023-05-10T05:08:24;4.70;;;2.80;;
70592;SDS011;58294;42.988;20.338;2023-05-10T05:10:51;7.38;;;3.58;;
70592;SDS011;58294;42.988;20.338;2023-05-10T05:13:17;4.10;;;3.13;;
70592;SDS011;58294;42.988;20.338;2023-05-10T05:15:43;6.63;;;2.38;;
70592;SDS011;58294;42.988;20.338;2023-05-10T05:18:09;2.53;;;1.92;;
70592;SDS011;58294;42.988;20.338;2023-05-10T05:20:35;6.20;;;3.92;;
70592;SDS011;58294;42.988;20.338;2023-05-10T05:23:01;4.40;;;2.83;;
70592;SDS011;58294;42.988;20.338;2023-05-10T05:25:27;11.13;;;3.20;;
70592;SDS011;58294;42.988;20.338;2023-05-10T05:27:53;2.45;;;2.05;;
70592;SDS011;58294;42.988;20.338;2023-05-10T05:30:18;2.50;;;2.22;;
70592;SDS011;58294;42.988;20.338;2023-05-10T05:32:44;8.95;;;4.22;;
70592;SDS011;58294;42.988;20.338;2023-05-10T05:35:12;3.90;;;2.85;;
70592;SDS011;58294;42.988;20.338;2023-05-10T05:37:37;6.05;;;3.17;;
70592;SDS011;58294;42.988;20.338;2023-05-10T05:40:04;4.85;;;3.05;;
70592;SDS011;58294;42.988;20.338;2023-05-10T05:42:30;6.38;;;3.90;;
70592;SDS011;58294;42.988;20.338;2023-05-10T05:44:56;14.70;;;7.03;;
70592;SDS011;58294;42.988;20.338;2023-05-10T05:47:22;8.02;;;4.15;;
70592;SDS011;58294;42.988;20.338;2023-05-10T05:49:48;33.22;;;8.20;;
70592;SDS011;58294;42.988;20.338;2023-05-10T05:52:14;8.07;;;6.13;;
70592;SDS011;58294;42.988;20.338;2023-05-10T05:54:39;4.57;;;4.13;;
70592;SDS011;58294;42.988;20.338;2023-05-10T05:57:05;5.70;;;3.33;;
70592;SDS011;58294;42.988;20.338;2023-05-10T05:59:31;10.38;;;4.95;;
70592;SDS011;58294;42.988;20.338;2023-05-10T06:01:57;4.50;;;2.92;;
70592;SDS011;58294;42.988;20.338;2023-05-10T06:04:23;4.95;;;4.38;;
70592;SDS011;58294;42.988;20.338;2023-05-10T06:06:49;3.97;;;3.58;;
70592;SDS011;58294;42.988;20.338;2023-05-10T06:09:15;3.90;;;3.47;;
70592;SDS011;58294;42.988;20.338;2023-05-10T06:11:41;5.10;;;3.40;;
70592;SDS011;58294;42.988;20.338;2023-05-10T06:14:07;8.23;;;6.90;;
70592;SDS011;58294;42.988;20.338;2023-05-10T06:16:35;9.00;;;8.07;;
70592;SDS011;58294;42.988;20.338;2023-05-10T06:19:02;20.58;;;6.13;;
70592;SDS011;58294;42.988;20.338;2023-05-10T06:21:28;10.50;;;4.18;;
70592;SDS011;58294;42.988;20.338;2023-05-10T06:23:53;9.52;;;4.30;;
70592;SDS011;58294;42.988;20.338;2023-05-10T06:26:19;3.15;;;2.75;;
70592;SDS011;58294;42.988;20.338;2023-05-10T06:28:45;10.88;;;4.53;;
70592;SDS011;58294;42.988;20.338;2023-05-10T06:31:11;6.53;;;4.15;;
70592;SDS011;58294;42.988;20.338;2023-05-10T06:33:37;7.47;;;3.33;;
70592;SDS011;58294;42.988;20.338;2023-05-10T06:36:03;5.53;;;4.03;;
70592;SDS011;58294;42.988;20.338;2023-05-10T06:38:29;7.07;;;3.25;;
70592;SDS011;58294;42.988;20.338;2023-05-10T06:40:55;15.05;;;5.60;;
70592;SDS011;58294;42.988;20.338;2023-05-10T06:43:20;8.48;;;3.75;;
70592;SDS011;58294;42.988;20.338;2023-05-10T06:45:47;7.72;;;3.70;;
70592;SDS011;58294;42.988;20.338;2023-05-10T06:48:13;7.80;;;3.15;;
70592;SDS011;58294;42.988;20.338;2023-05-10T06:50:39;11.18;;;4.20;;
70592;SDS011;58294;42.988;20.338;2023-05-10T06:53:04;7.47;;;4.07;;
70592;SDS011;58294;42.988;20.338;2023-05-10T06:55:30;8.18;;;3.65;;
70592;SDS011;58294;42.988;20.338;2023-05-10T06:57:56;6.78;;;3.10;;
70592;SDS011;58294;42.988;20.338;2023-05-10T07:00:22;5.35;;;3.10;;
70592;SDS011;58294;42.988;20.338;2023-05-10T07:02:48;8.82;;;3.80;;
70592;SDS011;58294;42.988;20.338;2023-05-10T07:05:14;5.47;;;3.33;;
70592;SDS011;58294;42.988;20.338;2023-05-10T07:07:40;7.97;;;2.67;;
70592;SDS011;58294;42.988;20.338;2023-05-10T07:10:06;9.15;;;3.47;;
70592;SDS011;58294;42.988;20.338;2023-05-10T07:12:32;3.88;;;2.53;;
70592;SDS011;58294;42.988;20.338;2023-05-10T07:14:58;11.02;;;6.30;;
70592;SDS011;58294;42.988;20.338;2023-05-10T07:17:24;6.38;;;4.15;;
70592;SDS011;58294;42.988;20.338;2023-05-10T07:19:50;14.55;;;5.47;;
70592;SDS011;58294;42.988;20.338;2023-05-10T07:22:16;17.25;;;7.80;;
70592;SDS011;58294;42.988;20.338;2023-05-10T07:24:42;17.08;;;6.40;;
70592;SDS011;58294;42.988;20.338;2023-05-10T07:27:08;5.60;;;3.92;;
70592;SDS011;58294;42.988;20.338;2023-05-10T07:29:34;4.25;;;2.90;;
70592;SDS011;58294;42.988;20.338;2023-05-10T07:32:00;2.00;;;1.80;;
70592;SDS011;58294;42.988;20.338;2023-05-10T07:34:26;3.35;;;3.00;;
70592;SDS011;58294;42.988;20.338;2023-05-10T07:36:52;1.90;;;1.80;;
70592;SDS011;58294;42.988;20.338;2023-05-10T07:39:18;6.63;;;2.83;;
70592;SDS011;58294;42.988;20.338;2023-05-10T07:41:45;12.45;;;9.07;;
70592;SDS011;58294;42.988;20.338;2023-05-10T07:44:11;4.70;;;2.38;;
70592;SDS011;58294;42.988;20.338;2023-05-10T07:46:37;7.65;;;3.00;;
70592;SDS011;58294;42.988;20.338;2023-05-10T07:49:03;3.85;;;2.65;;
70592;SDS011;58294;42.988;20.338;2023-05-10T07:51:29;4.72;;;1.95;;
70592;SDS011;58294;42.988;20.338;2023-05-10T07:53:55;6.18;;;2.20;;
70592;SDS011;58294;42.988;20.338;2023-05-10T07:56:26;2.50;;;2.30;;
70592;SDS011;58294;42.988;20.338;2023-05-10T07:58:57;5.45;;;2.88;;
70592;SDS011;58294;42.988;20.338;2023-05-10T08:01:26;7.95;;;4.55;;
70592;SDS011;58294;42.988;20.338;2023-05-10T08:03:56;4.97;;;3.13;;
70592;SDS011;58294;42.988;20.338;2023-05-10T08:06:26;3.88;;;2.20;;
70592;SDS011;58294;42.988;20.338;2023-05-10T08:08:53;4.55;;;2.88;;
70592;SDS011;58294;42.988;20.338;2023-05-10T08:11:19;3.75;;;2.75;;
70592;SDS011;58294;42.988;20.338;2023-05-10T08:13:48;6.25;;;3.47;;
70592;SDS011;58294;42.988;20.338;2023-05-10T08:16:15;4.63;;;3.85;;
70592;SDS011;58294;42.988;20.338;2023-05-10T08:18:43;9.60;;;5.70;;
70592;SDS011;58294;42.988;20.338;2023-05-10T08:21:10;7.70;;;2.97;;
70592;SDS011;58294;42.988;20.338;2023-05-10T08:23:36;4.22;;;3.83;;
70592;SDS011;58294;42.988;20.338;2023-05-10T08:26:02;13.60;;;4.25;;
70592;SDS011;58294;42.988;20.338;2023-05-10T08:28:28;4.70;;;3.58;;
70592;SDS011;58294;42.988;20.338;2023-05-10T08:30:54;7.13;;;3.92;;
70592;SDS011;58294;42.988;20.338;2023-05-10T08:33:21;7.70;;;3.28;;
70592;SDS011;58294;42.988;20.338;2023-05-10T08:35:47;6.07;;;2.85;;
70592;SDS011;58294;42.988;20.338;2023-05-10T08:38:13;4.32;;;2.53;;
70592;SDS011;58294;42.988;20.338;2023-05-10T08:40:41;4.70;;;3.22;;
70592;SDS011;58294;42.988;20.338;2023-05-10T08:43:08;6.32;;;3.85;;
70592;SDS011;58294;42.988;20.338;2023-05-10T08:45:41;11.20;;;4.18;;
70592;SDS011;58294;42.988;20.338;2023-05-10T08:48:10;12.13;;;6.28;;
70592;SDS011;58294;42.988;20.338;2023-05-10T08:50:37;10.82;;;4.43;;
70592;SDS011;58294;42.988;20.338;2023-05-10T08:53:06;8.90;;;3.85;;
70592;SDS011;58294;42.988;20.338;2023-05-10T08:55:36;3.92;;;3.08;;
70592;SDS011;58294;42.988;20.338;2023-05-10T08:58:06;6.05;;;2.85;;
70592;SDS011;58294;42.988;20.338;2023-05-10T09:00:32;8.23;;;3.55;;
70592;SDS011;58294;42.988;20.338;2023-05-10T09:02:59;7.43;;;3.63;;
70592;SDS011;58294;42.988;20.338;2023-05-10T09:05:26;2.60;;;2.40;;
70592;SDS011;58294;42.988;20.338;2023-05-10T09:07:53;7.10;;;4.43;;
70592;SDS011;58294;42.988;20.338;2023-05-10T09:10:19;4.88;;;3.63;;
70592;SDS011;58294;42.988;20.338;2023-05-10T09:12:45;14.88;;;4.43;;
70592;SDS011;58294;42.988;20.338;2023-05-10T09:15:14;9.00;;;4.35;;
70592;SDS011;58294;42.988;20.338;2023-05-10T09:17:41;5.40;;;3.72;;
70592;SDS011;58294;42.988;20.338;2023-05-10T09:20:08;4.60;;;3.30;;
70592;SDS011;58294;42.988;20.338;2023-05-10T09:22:34;4.50;;;3.55;;
70592;SDS011;58294;42.988;20.338;2023-05-10T09:25:07;4.55;;;3.83;;
70592;SDS011;58294;42.988;20.338;2023-05-10T09:27:34;5.85;;;4.03;;
70592;SDS011;58294;42.988;20.338;2023-05-10T09:30:01;9.23;;;5.05;;
70592;SDS011;58294;42.988;20.338;2023-05-10T09:32:37;5.00;;;3.95;;
70592;SDS011;58294;42.988;20.338;2023-05-10T09:35:07;7.20;;;4.68;;
70592;SDS011;58294;42.988;20.338;2023-05-10T09:37:40;9.80;;;8.05;;
70592;SDS011;58294;42.988;20.338;2023-05-10T09:40:08;9.85;;;6.53;;
70592;SDS011;58294;42.988;20.338;2023-05-10T09:42:37;7.70;;;6.32;;
70592;SDS011;58294;42.988;20.338;2023-05-10T09:45:04;7.85;;;5.60;;
70592;SDS011;58294;42.988;20.338;2023-05-10T09:47:33;4.38;;;3.97;;
70592;SDS011;58294;42.988;20.338;2023-05-10T09:50:01;7.65;;;5.00;;
70592;SDS011;58294;42.988;20.338;2023-05-10T09:55:19;5.63;;;3.63;;
70592;SDS011;58294;42.988;20.338;2023-05-10T09:57:47;4.68;;;4.05;;
70592;SDS011;58294;42.988;20.338;2023-05-10T10:00:22;4.60;;;3.17;;
70592;SDS011;58294;42.988;20.338;2023-05-10T10:02:55;3.00;;;2.70;;
70592;SDS011;58294;42.988;20.338;2023-05-10T10:05:32;5.15;;;4.65;;
70592;SDS011;58294;42.988;20.338;2023-05-10T10:08:01;6.40;;;5.07;;
70592;SDS011;58294;42.988;20.338;2023-05-10T10:10:28;3.80;;;2.95;;
70592;SDS011;58294;42.988;20.338;2023-05-10T10:12:55;6.05;;;3.30;;
70592;SDS011;58294;42.988;20.338;2023-05-10T10:15:22;9.27;;;6.00;;
70592;SDS011;58294;42.988;20.338;2023-05-10T10:17:49;7.75;;;4.30;;
70592;SDS011;58294;42.988;20.338;2023-05-10T10:20:16;4.57;;;3.80;;
70592;SDS011;58294;42.988;20.338;2023-05-10T10:22:43;4.80;;;4.30;;
70592;SDS011;58294;42.988;20.338;2023-05-10T10:25:10;5.97;;;4.45;;
70592;SDS011;58294;42.988;20.338;2023-05-10T10:35:55;7.57;;;4.82;;
70592;SDS011;58294;42.988;20.338;2023-05-10T10:38:24;10.02;;;5.97;;
70592;SDS011;58294;42.988;20.338;2023-05-10T10:41:11;20.65;;;16.02;;
70592;SDS011;58294;42.988;20.338;2023-05-10T10:44:22;39.20;;;25.88;;
70592;SDS011;58294;42.988;20.338;2023-05-10T10:55:07;20.25;;;10.80;;
70592;SDS011;58294;42.988;20.338;2023-05-10T11:03:05;11.35;;;6.35;;
70592;SDS011;58294;42.988;20.338;2023-05-10T11:10:51;4.13;;;2.53;;
70592;SDS011;58294;42.988;20.338;2023-05-10T11:13:26;6.20;;;4.22;;
70592;SDS011;58294;42.988;20.338;2023-05-10T11:18:37;8.93;;;7.55;;
70592;SDS011;58294;42.988;20.338;2023-05-10T11:21:03;7.57;;;4.78;;
70592;SDS011;58294;42.988;20.338;2023-05-10T11:23:47;5.47;;;3.15;;
70592;SDS011;58294;42.988;20.338;2023-05-10T11:26:17;4.85;;;3.97;;
70592;SDS011;58294;42.988;20.338;2023-05-10T11:28:44;4.35;;;3.95;;
70592;SDS011;58294;42.988;20.338;2023-05-10T11:31:15;4.68;;;4.22;;
70592;SDS011;58294;42.988;20.338;2023-05-10T11:36:12;5.80;;;4.13;;
70592;SDS011;58294;42.988;20.338;2023-05-10T11:38:42;6.68;;;4.07;;
70592;SDS011;58294;42.988;20.338;2023-05-10T11:41:09;4.55;;;3.70;;
70592;SDS011;58294;42.988;20.338;2023-05-10T11:43:36;4.47;;;3.75;;
70592;SDS011;58294;42.988;20.338;2023-05-10T11:46:07;3.95;;;3.42;;
70592;SDS011;58294;42.988;20.338;2023-05-10T11:48:33;7.22;;;3.70;;
70592;SDS011;58294;42.988;20.338;2023-05-10T11:51:00;12.02;;;4.30;;
70592;SDS011;58294;42.988;20.338;2023-05-10T11:53:27;7.53;;;4.68;;
70592;SDS011;58294;42.988;20.338;2023-05-10T11:56:09;5.18;;;4.22;;
70592;SDS011;58294;42.988;20.338;2023-05-10T11:58:36;4.82;;;4.32;;
70592;SDS011;58294;42.988;20.338;2023-05-10T12:01:04;6.30;;;5.70;;
70592;SDS011;58294;42.988;20.338;2023-05-10T12:03:32;7.90;;;4.68;;
70592;SDS011;58294;42.988;20.338;2023-05-10T12:05:58;5.65;;;4.32;;
70592;SDS011;58294;42.988;20.338;2023-05-10T12:08:26;5.82;;;4.82;;
70592;SDS011;58294;42.988;20.338;2023-05-10T12:11:03;6.25;;;5.45;;
70592;SDS011;58294;42.988;20.338;2023-05-10T12:13:34;4.78;;;4.13;;
70592;SDS011;58294;42.988;20.338;2023-05-10T12:16:20;5.57;;;4.25;;
70592;SDS011;58294;42.988;20.338;2023-05-10T12:18:52;16.20;;;7.57;;
70592;SDS011;58294;42.988;20.338;2023-05-10T12:21:20;6.10;;;4.95;;
70592;SDS011;58294;42.988;20.338;2023-05-10T12:23:47;6.47;;;4.88;;
70592;SDS011;58294;42.988;20.338;2023-05-10T12:26:16;8.00;;;5.35;;
70592;SDS011;58294;42.988;20.338;2023-05-10T12:28:42;4.75;;;4.32;;
70592;SDS011;58294;42.988;20.338;2023-05-10T12:31:08;7.30;;;4.68;;
70592;SDS011;58294;42.988;20.338;2023-05-10T12:36:04;11.93;;;6.38;;
70592;SDS011;58294;42.988;20.338;2023-05-10T12:38:32;8.55;;;5.53;;
70592;SDS011;58294;42.988;20.338;2023-05-10T12:41:00;5.70;;;5.18;;
70592;SDS011;58294;42.988;20.338;2023-05-10T12:43:28;7.95;;;5.43;;
70592;SDS011;58294;42.988;20.338;2023-05-10T12:45:54;9.95;;;5.82;;
70592;SDS011;58294;42.988;20.338;2023-05-10T12:48:20;7.85;;;6.13;;
70592;SDS011;58294;42.988;20.338;2023-05-10T12:50:46;7.25;;;5.55;;
70592;SDS011;58294;42.988;20.338;2023-05-10T12:53:13;9.05;;;6.22;;
70592;SDS011;58294;42.988;20.338;2023-05-10T12:55:43;6.57;;;5.97;;
70592;SDS011;58294;42.988;20.338;2023-05-10T12:58:09;8.73;;;5.47;;
70592;SDS011;58294;42.988;20.338;2023-05-10T13:00:35;6.43;;;5.00;;
70592;SDS011;58294;42.988;20.338;2023-05-10T13:03:03;5.35;;;4.85;;
70592;SDS011;58294;42.988;20.338;2023-05-10T13:05:33;10.38;;;6.20;;
70592;SDS011;58294;42.988;20.338;2023-05-10T13:07:59;8.98;;;6.60;;
70592;SDS011;58294;42.988;20.338;2023-05-10T13:10:25;11.65;;;6.93;;
70592;SDS011;58294;42.988;20.338;2023-05-10T13:12:51;16.67;;;8.30;;
70592;SDS011;58294;42.988;20.338;2023-05-10T13:15:17;10.50;;;5.93;;
70592;SDS011;58294;42.988;20.338;2023-05-10T13:17:43;6.57;;;5.90;;
70592;SDS011;58294;42.988;20.338;2023-05-10T13:20:10;9.15;;;7.43;;
70592;SDS011;58294;42.988;20.338;2023-05-10T13:22:36;9.77;;;8.05;;
70592;SDS011;58294;42.988;20.338;2023-05-10T13:25:02;16.08;;;10.85;;
70592;SDS011;58294;42.988;20.338;2023-05-10T13:27:28;10.20;;;7.05;;
70592;SDS011;58294;42.988;20.338;2023-05-10T13:29:54;12.73;;;7.57;;
70592;SDS011;58294;42.988;20.338;2023-05-10T13:32:20;24.50;;;11.13;;
70592;SDS011;58294;42.988;20.338;2023-05-10T13:34:46;8.75;;;7.38;;
70592;SDS011;58294;42.988;20.338;2023-05-10T13:37:12;8.32;;;7.50;;
70592;SDS011;58294;42.988;20.338;2023-05-10T13:39:38;9.50;;;8.57;;
70592;SDS011;58294;42.988;20.338;2023-05-10T13:42:04;17.23;;;7.72;;
70592;SDS011;58294;42.988;20.338;2023-05-10T13:44:30;9.70;;;7.68;;
70592;SDS011;58294;42.988;20.338;2023-05-10T13:46:58;10.63;;;8.27;;
70592;SDS011;58294;42.988;20.338;2023-05-10T13:49:24;9.05;;;6.75;;
70592;SDS011;58294;42.988;20.338;2023-05-10T13:51:50;8.30;;;7.47;;
70592;SDS011;58294;42.988;20.338;2023-05-10T13:54:17;14.20;;;12.73;;
70592;SDS011;58294;42.988;20.338;2023-05-10T13:56:44;9.77;;;6.68;;
70592;SDS011;58294;42.988;20.338;2023-05-10T13:59:12;8.05;;;7.05;;
70592;SDS011;58294;42.988;20.338;2023-05-10T14:01:39;10.52;;;9.48;;
70592;SDS011;58294;42.988;20.338;2023-05-10T14:04:08;11.57;;;9.45;;
70592;SDS011;58294;42.988;20.338;2023-05-10T14:06:38;10.35;;;8.63;;
70592;SDS011;58294;42.988;20.338;2023-05-10T14:09:04;12.05;;;9.40;;
70592;SDS011;58294;42.988;20.338;2023-05-10T14:11:30;10.23;;;9.13;;
70592;SDS011;58294;42.988;20.338;2023-05-10T14:13:58;9.73;;;8.80;;
70592;SDS011;58294;42.988;20.338;2023-05-10T14:16:24;12.98;;;9.65;;
70592;SDS011;58294;42.988;20.338;2023-05-10T14:18:50;12.02;;;9.70;;
70592;SDS011;58294;42.988;20.338;2023-05-10T14:21:15;11.63;;;8.88;;
70592;SDS011;58294;42.988;20.338;2023-05-10T14:23:41;10.45;;;9.55;;
70592;SDS011;58294;42.988;20.338;2023-05-10T14:26:07;11.93;;;10.57;;
70592;SDS011;58294;42.988;20.338;2023-05-10T14:28:33;11.10;;;9.35;;
70592;SDS011;58294;42.988;20.338;2023-05-10T14:30:59;11.63;;;10.38;;
70592;SDS011;58294;42.988;20.338;2023-05-10T14:33:25;10.35;;;9.35;;
70592;SDS011;58294;42.988;20.338;2023-05-10T14:35:51;12.23;;;8.63;;
70592;SDS011;58294;42.988;20.338;2023-05-10T14:38:17;10.82;;;9.73;;
70592;SDS011;58294;42.988;20.338;2023-05-10T14:40:43;12.55;;;9.20;;
70592;SDS011;58294;42.988;20.338;2023-05-10T14:43:09;11.57;;;10.00;;
70592;SDS011;58294;42.988;20.338;2023-05-10T14:45:34;11.40;;;10.20;;
70592;SDS011;58294;42.988;20.338;2023-05-10T14:48:00;11.02;;;8.70;;
70592;SDS011;58294;42.988;20.338;2023-05-10T14:50:29;10.30;;;9.05;;
70592;SDS011;58294;42.988;20.338;2023-05-10T14:52:56;10.20;;;8.15;;
70592;SDS011;58294;42.988;20.338;2023-05-10T14:55:22;15.20;;;7.63;;
70592;SDS011;58294;42.988;20.338;2023-05-10T14:57:48;12.82;;;8.73;;
70592;SDS011;58294;42.988;20.338;2023-05-10T15:00:15;10.10;;;9.07;;
70592;SDS011;58294;42.988;20.338;2023-05-10T15:02:42;15.52;;;10.40;;
70592;SDS011;58294;42.988;20.338;2023-05-10T15:05:08;10.10;;;8.07;;
70592;SDS011;58294;42.988;20.338;2023-05-10T15:07:34;11.43;;;10.23;;
70592;SDS011;58294;42.988;20.338;2023-05-10T15:10:00;14.77;;;10.85;;
70592;SDS011;58294;42.988;20.338;2023-05-10T15:12:25;10.02;;;8.93;;
70592;SDS011;58294;42.988;20.338;2023-05-10T15:14:51;9.32;;;8.18;;
70592;SDS011;58294;42.988;20.338;2023-05-10T15:17:17;10.32;;;7.35;;
70592;SDS011;58294;42.988;20.338;2023-05-10T15:19:43;11.27;;;9.93;;
70592;SDS011;58294;42.988;20.338;2023-05-10T15:22:09;10.45;;;9.38;;
70592;SDS011;58294;42.988;20.338;2023-05-10T15:24:35;10.88;;;8.77;;
70592;SDS011;58294;42.988;20.338;2023-05-10T15:27:01;9.43;;;8.50;;
70592;SDS011;58294;42.988;20.338;2023-05-10T15:29:27;13.43;;;10.27;;
70592;SDS011;58294;42.988;20.338;2023-05-10T15:31:53;10.45;;;8.93;;
70592;SDS011;58294;42.988;20.338;2023-05-10T15:34:18;10.23;;;9.00;;